sensor_id;sensor_type;location;lat;lon;timestamp;temperature;humidity
35700;DHT22;21818;51.078;12.108;2023-04-06T00:00:55;9.70;65.70
35700;DHT22;21818;51.078;12.108;2023-04-06T00:03:20;9.70;65.60
35700;DHT22;21818;51.078;12.108;2023-04-06T00:05:47;9.70;65.50
35700;DHT22;21818;51.078;12.108;2023-04-06T00:08:13;9.70;65.40
35700;DHT22;21818;51.078;12.108;2023-04-06T00:10:39;9.70;65.30
35700;DHT22;21818;51.078;12.108;2023-04-06T00:13:05;9.70;65.30
35700;DHT22;21818;51.078;12.108;2023-04-06T00:15:31;9.80;65.40
35700;DHT22;21818;51.078;12.108;2023-04-06T00:17:56;9.70;65.30
35700;DHT22;21818;51.078;12.108;2023-04-06T00:20:23;9.70;65.40
35700;DHT22;21818;51.078;12.108;2023-04-06T00:22:48;9.70;66.00
35700;DHT22;21818;51.078;12.108;2023-04-06T00:25:14;9.70;65.40
35700;DHT22;21818;51.078;12.108;2023-04-06T00:27:41;9.70;65.50
35700;DHT22;21818;51.078;12.108;2023-04-06T00:30:08;9.70;65.40
35700;DHT22;21818;51.078;12.108;2023-04-06T00:32:34;9.70;65.40
35700;DHT22;21818;51.078;12.108;2023-04-06T00:35:05;9.70;65.60
35700;DHT22;21818;51.078;12.108;2023-04-06T00:37:31;9.70;65.80
35700;DHT22;21818;51.078;12.108;2023-04-06T00:39:57;9.70;65.90
35700;DHT22;21818;51.078;12.108;2023-04-06T00:42:24;9.70;66.00
35700;DHT22;21818;51.078;12.108;2023-04-06T00:44:58;9.70;66.30
35700;DHT22;21818;51.078;12.108;2023-04-06T00:47:24;9.60;66.40
35700;DHT22;21818;51.078;12.108;2023-04-06T00:49:51;9.60;66.60
35700;DHT22;21818;51.078;12.108;2023-04-06T00:52:17;9.60;66.60
35700;DHT22;21818;51.078;12.108;2023-04-06T00:54:42;9.60;66.60
35700;DHT22;21818;51.078;12.108;2023-04-06T00:57:08;9.60;66.70
35700;DHT22;21818;51.078;12.108;2023-04-06T00:59:34;9.60;66.90
35700;DHT22;21818;51.078;12.108;2023-04-06T01:01:59;9.60;66.90
35700;DHT22;21818;51.078;12.108;2023-04-06T01:04:25;9.60;66.80
35700;DHT22;21818;51.078;12.108;2023-04-06T01:06:51;9.60;66.80
35700;DHT22;21818;51.078;12.108;2023-04-06T01:09:17;9.50;67.00
35700;DHT22;21818;51.078;12.108;2023-04-06T01:11:43;9.50;67.20
35700;DHT22;21818;51.078;12.108;2023-04-06T01:14:08;9.50;68.00
35700;DHT22;21818;51.078;12.108;2023-04-06T01:16:34;9.50;67.50
35700;DHT22;21818;51.078;12.108;2023-04-06T01:19:00;9.50;67.70
35700;DHT22;21818;51.078;12.108;2023-04-06T01:21:26;9.50;67.80
35700;DHT22;21818;51.078;12.108;2023-04-06T01:23:52;9.50;68.00
35700;DHT22;21818;51.078;12.108;2023-04-06T01:26:17;9.50;68.60
35700;DHT22;21818;51.078;12.108;2023-04-06T01:28:43;9.50;68.10
35700;DHT22;21818;51.078;12.108;2023-04-06T01:31:10;9.40;68.20
35700;DHT22;21818;51.078;12.108;2023-04-06T01:33:35;9.40;68.30
35700;DHT22;21818;51.078;12.108;2023-04-06T01:36:02;9.50;68.40
35700;DHT22;21818;51.078;12.108;2023-04-06T01:38:28;9.50;68.50
35700;DHT22;21818;51.078;12.108;2023-04-06T01:40:54;9.50;68.50
35700;DHT22;21818;51.078;12.108;2023-04-06T01:43:20;9.50;68.90
35700;DHT22;21818;51.078;12.108;2023-04-06T01:45:45;9.50;68.70
35700;DHT22;21818;51.078;12.108;2023-04-06T01:48:11;9.50;68.80
35700;DHT22;21818;51.078;12.108;2023-04-06T01:50:36;9.40;68.60
35700;DHT22;21818;51.078;12.108;2023-04-06T01:53:02;9.40;68.60
35700;DHT22;21818;51.078;12.108;2023-04-06T01:55:27;9.50;68.50
35700;DHT22;21818;51.078;12.108;2023-04-06T01:57:53;9.50;68.50
35700;DHT22;21818;51.078;12.108;2023-04-06T02:00:19;9.50;68.30
35700;DHT22;21818;51.078;12.108;2023-04-06T02:02:44;9.40;68.20
35700;DHT22;21818;51.078;12.108;2023-04-06T02:05:10;9.50;68.10
35700;DHT22;21818;51.078;12.108;2023-04-06T02:07:36;9.50;67.90
35700;DHT22;21818;51.078;12.108;2023-04-06T02:10:02;9.50;67.90
35700;DHT22;21818;51.078;12.108;2023-04-06T02:12:28;9.50;68.00
35700;DHT22;21818;51.078;12.108;2023-04-06T02:14:53;9.40;68.00
35700;DHT22;21818;51.078;12.108;2023-04-06T02:17:19;9.40;68.20
35700;DHT22;21818;51.078;12.108;2023-04-06T02:19:45;9.30;68.20
35700;DHT22;21818;51.078;12.108;2023-04-06T02:22:11;9.30;68.30
35700;DHT22;21818;51.078;12.108;2023-04-06T02:24:37;9.20;68.30
35700;DHT22;21818;51.078;12.108;2023-04-06T02:27:02;9.20;68.40
35700;DHT22;21818;51.078;12.108;2023-04-06T02:29:28;9.20;68.40
35700;DHT22;21818;51.078;12.108;2023-04-06T02:31:53;9.20;68.50
35700;DHT22;21818;51.078;12.108;2023-04-06T02:34:19;9.20;68.50
35700;DHT22;21818;51.078;12.108;2023-04-06T02:36:45;9.10;68.50
35700;DHT22;21818;51.078;12.108;2023-04-06T02:39:11;9.10;68.70
35700;DHT22;21818;51.078;12.108;2023-04-06T02:41:37;9.10;68.70
35700;DHT22;21818;51.078;12.108;2023-04-06T02:44:03;9.10;68.80
35700;DHT22;21818;51.078;12.108;2023-04-06T02:46:28;9.10;68.70
35700;DHT22;21818;51.078;12.108;2023-04-06T02:48:54;9.10;68.40
35700;DHT22;21818;51.078;12.108;2023-04-06T02:51:20;9.10;68.30
35700;DHT22;21818;51.078;12.108;2023-04-06T02:53:46;9.20;68.00
35700;DHT22;21818;51.078;12.108;2023-04-06T02:56:11;9.20;67.70
35700;DHT22;21818;51.078;12.108;2023-04-06T02:58:37;9.20;67.50
35700;DHT22;21818;51.078;12.108;2023-04-06T03:01:03;9.20;67.40
35700;DHT22;21818;51.078;12.108;2023-04-06T03:03:29;9.30;67.30
35700;DHT22;21818;51.078;12.108;2023-04-06T03:05:55;9.30;67.10
35700;DHT22;21818;51.078;12.108;2023-04-06T03:08:23;9.30;67.10
35700;DHT22;21818;51.078;12.108;2023-04-06T03:10:49;9.20;67.00
35700;DHT22;21818;51.078;12.108;2023-04-06T03:13:15;9.20;66.90
35700;DHT22;21818;51.078;12.108;2023-04-06T03:15:40;9.20;66.80
35700;DHT22;21818;51.078;12.108;2023-04-06T03:18:06;9.20;66.80
35700;DHT22;21818;51.078;12.108;2023-04-06T03:20:31;9.20;66.70
35700;DHT22;21818;51.078;12.108;2023-04-06T03:22:57;9.20;66.70
35700;DHT22;21818;51.078;12.108;2023-04-06T03:25:23;9.20;66.80
35700;DHT22;21818;51.078;12.108;2023-04-06T03:27:49;9.10;66.80
35700;DHT22;21818;51.078;12.108;2023-04-06T03:30:14;9.10;66.90
35700;DHT22;21818;51.078;12.108;2023-04-06T03:32:43;9.10;66.90
35700;DHT22;21818;51.078;12.108;2023-04-06T03:35:09;9.10;66.90
35700;DHT22;21818;51.078;12.108;2023-04-06T03:37:34;9.10;67.10
35700;DHT22;21818;51.078;12.108;2023-04-06T03:40:00;9.10;67.10
35700;DHT22;21818;51.078;12.108;2023-04-06T03:42:26;9.10;67.10
35700;DHT22;21818;51.078;12.108;2023-04-06T03:44:52;9.00;67.10
35700;DHT22;21818;51.078;12.108;2023-04-06T03:47:17;9.00;67.20
35700;DHT22;21818;51.078;12.108;2023-04-06T03:49:43;9.00;67.20
35700;DHT22;21818;51.078;12.108;2023-04-06T03:52:08;9.00;67.40
35700;DHT22;21818;51.078;12.108;2023-04-06T03:54:34;9.00;67.40
35700;DHT22;21818;51.078;12.108;2023-04-06T03:56:59;9.00;67.50
35700;DHT22;21818;51.078;12.108;2023-04-06T03:59:25;8.90;67.50
35700;DHT22;21818;51.078;12.108;2023-04-06T04:01:51;8.90;67.50
35700;DHT22;21818;51.078;12.108;2023-04-06T04:04:17;8.90;67.60
35700;DHT22;21818;51.078;12.108;2023-04-06T04:06:42;8.80;67.60
35700;DHT22;21818;51.078;12.108;2023-04-06T04:09:08;8.80;67.60
35700;DHT22;21818;51.078;12.108;2023-04-06T04:11:33;8.80;67.50
35700;DHT22;21818;51.078;12.108;2023-04-06T04:13:59;8.80;67.40
35700;DHT22;21818;51.078;12.108;2023-04-06T04:16:24;8.70;67.40
35700;DHT22;21818;51.078;12.108;2023-04-06T04:18:50;8.70;67.40
35700;DHT22;21818;51.078;12.108;2023-04-06T04:21:16;8.70;67.50
35700;DHT22;21818;51.078;12.108;2023-04-06T04:23:41;8.70;67.50
35700;DHT22;21818;51.078;12.108;2023-04-06T04:26:07;8.70;67.40
35700;DHT22;21818;51.078;12.108;2023-04-06T04:28:32;8.60;67.30
35700;DHT22;21818;51.078;12.108;2023-04-06T04:30:58;8.70;67.30
35700;DHT22;21818;51.078;12.108;2023-04-06T04:33:23;8.60;67.30
35700;DHT22;21818;51.078;12.108;2023-04-06T04:35:49;8.70;67.00
35700;DHT22;21818;51.078;12.108;2023-04-06T04:38:15;8.70;66.90
35700;DHT22;21818;51.078;12.108;2023-04-06T04:40:40;8.60;66.80
35700;DHT22;21818;51.078;12.108;2023-04-06T04:43:06;8.60;66.80
35700;DHT22;21818;51.078;12.108;2023-04-06T04:45:31;8.60;66.80
35700;DHT22;21818;51.078;12.108;2023-04-06T04:47:57;8.60;66.70
35700;DHT22;21818;51.078;12.108;2023-04-06T04:50:22;8.60;66.40
35700;DHT22;21818;51.078;12.108;2023-04-06T04:52:48;8.60;66.50
35700;DHT22;21818;51.078;12.108;2023-04-06T04:55:13;8.60;66.30
35700;DHT22;21818;51.078;12.108;2023-04-06T04:57:39;8.70;66.30
35700;DHT22;21818;51.078;12.108;2023-04-06T05:00:05;8.70;66.30
35700;DHT22;21818;51.078;12.108;2023-04-06T05:02:31;8.70;66.20
35700;DHT22;21818;51.078;12.108;2023-04-06T05:04:56;8.70;66.00
35700;DHT22;21818;51.078;12.108;2023-04-06T05:07:22;8.70;66.00
35700;DHT22;21818;51.078;12.108;2023-04-06T05:09:48;8.60;66.00
35700;DHT22;21818;51.078;12.108;2023-04-06T05:12:14;8.70;66.00
35700;DHT22;21818;51.078;12.108;2023-04-06T05:14:40;8.70;65.90
35700;DHT22;21818;51.078;12.108;2023-04-06T05:17:06;8.70;65.70
35700;DHT22;21818;51.078;12.108;2023-04-06T05:19:31;8.70;65.60
35700;DHT22;21818;51.078;12.108;2023-04-06T05:21:57;8.70;65.50
35700;DHT22;21818;51.078;12.108;2023-04-06T05:24:22;8.70;65.50
35700;DHT22;21818;51.078;12.108;2023-04-06T05:26:48;8.80;65.90
35700;DHT22;21818;51.078;12.108;2023-04-06T05:29:14;9.50;65.40
35700;DHT22;21818;51.078;12.108;2023-04-06T05:31:40;10.10;64.80
35700;DHT22;21818;51.078;12.108;2023-04-06T05:34:06;10.50;64.30
35700;DHT22;21818;51.078;12.108;2023-04-06T05:36:31;10.80;64.10
35700;DHT22;21818;51.078;12.108;2023-04-06T05:38:57;11.00;63.80
35700;DHT22;21818;51.078;12.108;2023-04-06T05:41:24;11.10;63.70
35700;DHT22;21818;51.078;12.108;2023-04-06T05:43:50;11.20;63.70
35700;DHT22;21818;51.078;12.108;2023-04-06T05:46:15;11.30;63.80
35700;DHT22;21818;51.078;12.108;2023-04-06T05:48:41;11.40;63.70
35700;DHT22;21818;51.078;12.108;2023-04-06T05:51:06;11.50;63.60
35700;DHT22;21818;51.078;12.108;2023-04-06T05:53:32;11.60;63.50
35700;DHT22;21818;51.078;12.108;2023-04-06T05:56:01;11.80;63.30
35700;DHT22;21818;51.078;12.108;2023-04-06T05:58:27;11.90;63.10
35700;DHT22;21818;51.078;12.108;2023-04-06T06:01:00;12.00;63.00
35700;DHT22;21818;51.078;12.108;2023-04-06T06:03:26;12.10;62.80
35700;DHT22;21818;51.078;12.108;2023-04-06T06:05:51;12.20;62.80
35700;DHT22;21818;51.078;12.108;2023-04-06T06:08:17;12.20;62.80
35700;DHT22;21818;51.078;12.108;2023-04-06T06:10:42;12.20;62.60
35700;DHT22;21818;51.078;12.108;2023-04-06T06:13:08;12.20;62.60
35700;DHT22;21818;51.078;12.108;2023-04-06T06:15:34;12.30;62.60
35700;DHT22;21818;51.078;12.108;2023-04-06T06:18:00;12.30;62.50
35700;DHT22;21818;51.078;12.108;2023-04-06T06:20:25;12.40;62.50
35700;DHT22;21818;51.078;12.108;2023-04-06T06:22:52;12.40;62.30
35700;DHT22;21818;51.078;12.108;2023-04-06T06:25:17;12.40;62.30
35700;DHT22;21818;51.078;12.108;2023-04-06T06:27:43;12.50;62.30
35700;DHT22;21818;51.078;12.108;2023-04-06T06:30:09;12.50;62.20
35700;DHT22;21818;51.078;12.108;2023-04-06T06:32:34;12.50;62.10
35700;DHT22;21818;51.078;12.108;2023-04-06T06:35:00;12.60;62.10
35700;DHT22;21818;51.078;12.108;2023-04-06T06:37:26;12.60;62.00
35700;DHT22;21818;51.078;12.108;2023-04-06T06:39:51;12.60;61.90
35700;DHT22;21818;51.078;12.108;2023-04-06T06:42:17;12.70;61.90
35700;DHT22;21818;51.078;12.108;2023-04-06T06:44:42;12.60;61.90
35700;DHT22;21818;51.078;12.108;2023-04-06T06:47:08;12.60;62.10
35700;DHT22;21818;51.078;12.108;2023-04-06T06:49:33;12.60;62.10
35700;DHT22;21818;51.078;12.108;2023-04-06T06:51:59;12.50;62.10
35700;DHT22;21818;51.078;12.108;2023-04-06T06:54:24;12.50;62.10
35700;DHT22;21818;51.078;12.108;2023-04-06T06:56:50;12.50;62.10
35700;DHT22;21818;51.078;12.108;2023-04-06T06:59:16;12.60;62.10
35700;DHT22;21818;51.078;12.108;2023-04-06T07:01:42;12.60;62.10
35700;DHT22;21818;51.078;12.108;2023-04-06T07:04:07;12.60;62.10
35700;DHT22;21818;51.078;12.108;2023-04-06T07:06:35;12.60;62.10
35700;DHT22;21818;51.078;12.108;2023-04-06T07:09:01;12.60;62.00
35700;DHT22;21818;51.078;12.108;2023-04-06T07:11:29;12.70;62.00
35700;DHT22;21818;51.078;12.108;2023-04-06T07:13:54;12.70;62.00
35700;DHT22;21818;51.078;12.108;2023-04-06T07:16:20;12.70;61.90
35700;DHT22;21818;51.078;12.108;2023-04-06T07:18:46;12.80;61.80
35700;DHT22;21818;51.078;12.108;2023-04-06T07:21:11;12.80;61.70
35700;DHT22;21818;51.078;12.108;2023-04-06T07:23:37;12.80;61.60
35700;DHT22;21818;51.078;12.108;2023-04-06T07:26:03;12.90;61.60
35700;DHT22;21818;51.078;12.108;2023-04-06T07:28:28;12.90;61.70
35700;DHT22;21818;51.078;12.108;2023-04-06T07:30:54;12.90;61.70
35700;DHT22;21818;51.078;12.108;2023-04-06T07:33:20;12.90;61.60
35700;DHT22;21818;51.078;12.108;2023-04-06T07:35:45;13.00;61.50
35700;DHT22;21818;51.078;12.108;2023-04-06T07:38:11;13.00;61.40
35700;DHT22;21818;51.078;12.108;2023-04-06T07:40:36;13.00;61.30
35700;DHT22;21818;51.078;12.108;2023-04-06T07:43:02;13.10;61.10
35700;DHT22;21818;51.078;12.108;2023-04-06T07:45:28;13.10;61.00
35700;DHT22;21818;51.078;12.108;2023-04-06T07:47:54;13.20;61.00
35700;DHT22;21818;51.078;12.108;2023-04-06T07:50:20;13.20;61.20
35700;DHT22;21818;51.078;12.108;2023-04-06T07:52:45;13.20;61.30
35700;DHT22;21818;51.078;12.108;2023-04-06T07:55:11;13.20;61.40
35700;DHT22;21818;51.078;12.108;2023-04-06T07:57:37;13.20;61.50
35700;DHT22;21818;51.078;12.108;2023-04-06T08:00:03;13.20;61.50
35700;DHT22;21818;51.078;12.108;2023-04-06T08:02:30;13.20;61.40
35700;DHT22;21818;51.078;12.108;2023-04-06T08:04:55;13.20;61.30
35700;DHT22;21818;51.078;12.108;2023-04-06T08:07:21;13.20;61.30
35700;DHT22;21818;51.078;12.108;2023-04-06T08:09:46;13.10;61.30
35700;DHT22;21818;51.078;12.108;2023-04-06T08:12:12;13.20;61.50
35700;DHT22;21818;51.078;12.108;2023-04-06T08:14:38;13.20;61.50
35700;DHT22;21818;51.078;12.108;2023-04-06T08:17:03;13.20;61.40
35700;DHT22;21818;51.078;12.108;2023-04-06T08:19:29;13.20;61.40
35700;DHT22;21818;51.078;12.108;2023-04-06T08:21:54;13.30;61.40
35700;DHT22;21818;51.078;12.108;2023-04-06T08:24:20;13.30;61.30
35700;DHT22;21818;51.078;12.108;2023-04-06T08:26:46;13.30;61.20
35700;DHT22;21818;51.078;12.108;2023-04-06T08:29:11;13.30;61.20
35700;DHT22;21818;51.078;12.108;2023-04-06T08:31:37;13.40;61.20
35700;DHT22;21818;51.078;12.108;2023-04-06T08:34:04;13.40;61.20
35700;DHT22;21818;51.078;12.108;2023-04-06T08:36:29;13.40;61.20
35700;DHT22;21818;51.078;12.108;2023-04-06T08:38:56;13.40;61.20
35700;DHT22;21818;51.078;12.108;2023-04-06T08:41:21;13.40;61.00
35700;DHT22;21818;51.078;12.108;2023-04-06T08:43:49;13.50;60.90
35700;DHT22;21818;51.078;12.108;2023-04-06T08:46:17;13.50;60.60
35700;DHT22;21818;51.078;12.108;2023-04-06T08:48:43;13.60;60.40
35700;DHT22;21818;51.078;12.108;2023-04-06T08:51:10;13.60;60.20
35700;DHT22;21818;51.078;12.108;2023-04-06T08:53:36;13.60;60.40
35700;DHT22;21818;51.078;12.108;2023-04-06T08:56:03;13.50;60.50
35700;DHT22;21818;51.078;12.108;2023-04-06T08:58:35;13.50;60.70
35700;DHT22;21818;51.078;12.108;2023-04-06T09:01:06;13.50;60.70
35700;DHT22;21818;51.078;12.108;2023-04-06T09:03:36;13.50;60.90
35700;DHT22;21818;51.078;12.108;2023-04-06T09:06:03;13.60;60.90
35700;DHT22;21818;51.078;12.108;2023-04-06T09:08:29;13.60;60.90
35700;DHT22;21818;51.078;12.108;2023-04-06T09:10:55;13.60;60.80
35700;DHT22;21818;51.078;12.108;2023-04-06T09:13:21;13.60;60.60
35700;DHT22;21818;51.078;12.108;2023-04-06T09:15:46;13.60;60.40
35700;DHT22;21818;51.078;12.108;2023-04-06T09:18:12;13.60;60.30
35700;DHT22;21818;51.078;12.108;2023-04-06T09:20:37;13.60;60.50
35700;DHT22;21818;51.078;12.108;2023-04-06T09:23:03;13.60;60.50
35700;DHT22;21818;51.078;12.108;2023-04-06T09:25:29;13.60;60.70
35700;DHT22;21818;51.078;12.108;2023-04-06T09:28:04;13.60;60.80
35700;DHT22;21818;51.078;12.108;2023-04-06T09:30:30;13.70;60.90
35700;DHT22;21818;51.078;12.108;2023-04-06T09:32:57;13.70;60.90
35700;DHT22;21818;51.078;12.108;2023-04-06T09:35:23;13.70;61.00
35700;DHT22;21818;51.078;12.108;2023-04-06T09:37:50;13.70;61.00
35700;DHT22;21818;51.078;12.108;2023-04-06T09:40:17;13.80;61.00
35700;DHT22;21818;51.078;12.108;2023-04-06T09:42:48;13.80;61.10
35700;DHT22;21818;51.078;12.108;2023-04-06T09:45:15;13.80;61.00
35700;DHT22;21818;51.078;12.108;2023-04-06T09:47:45;13.80;60.90
35700;DHT22;21818;51.078;12.108;2023-04-06T09:50:14;13.80;60.60
35700;DHT22;21818;51.078;12.108;2023-04-06T09:52:48;13.80;60.20
35700;DHT22;21818;51.078;12.108;2023-04-06T09:55:23;13.70;60.00
35700;DHT22;21818;51.078;12.108;2023-04-06T09:58:00;13.70;60.20
35700;DHT22;21818;51.078;12.108;2023-04-06T10:00:32;13.80;60.20
35700;DHT22;21818;51.078;12.108;2023-04-06T10:03:09;13.80;60.10
35700;DHT22;21818;51.078;12.108;2023-04-06T10:05:46;13.80;60.00
35700;DHT22;21818;51.078;12.108;2023-04-06T10:08:15;13.80;60.00
35700;DHT22;21818;51.078;12.108;2023-04-06T10:10:41;13.90;60.20
35700;DHT22;21818;51.078;12.108;2023-04-06T10:13:10;13.90;59.70
35700;DHT22;21818;51.078;12.108;2023-04-06T10:15:38;13.90;59.50
35700;DHT22;21818;51.078;12.108;2023-04-06T10:18:04;14.00;59.70
35700;DHT22;21818;51.078;12.108;2023-04-06T10:23:12;14.00;60.60
35700;DHT22;21818;51.078;12.108;2023-04-06T10:25:57;14.00;60.20
35700;DHT22;21818;51.078;12.108;2023-04-06T10:28:24;14.00;60.10
35700;DHT22;21818;51.078;12.108;2023-04-06T10:31:00;14.00;60.20
35700;DHT22;21818;51.078;12.108;2023-04-06T10:33:26;14.00;60.20
35700;DHT22;21818;51.078;12.108;2023-04-06T10:35:52;13.90;60.30
35700;DHT22;21818;51.078;12.108;2023-04-06T10:38:19;14.00;60.30
35700;DHT22;21818;51.078;12.108;2023-04-06T10:40:47;14.00;60.10
35700;DHT22;21818;51.078;12.108;2023-04-06T10:43:22;14.10;60.30
35700;DHT22;21818;51.078;12.108;2023-04-06T10:45:59;14.10;60.90
35700;DHT22;21818;51.078;12.108;2023-04-06T10:48:25;14.10;60.20
35700;DHT22;21818;51.078;12.108;2023-04-06T10:51:01;14.10;60.30
35700;DHT22;21818;51.078;12.108;2023-04-06T10:53:27;14.10;60.30
35700;DHT22;21818;51.078;12.108;2023-04-06T10:55:55;14.10;60.30
35700;DHT22;21818;51.078;12.108;2023-04-06T10:58:28;14.10;60.20
35700;DHT22;21818;51.078;12.108;2023-04-06T11:00:54;14.10;60.10
35700;DHT22;21818;51.078;12.108;2023-04-06T11:03:21;14.10;60.30
35700;DHT22;21818;51.078;12.108;2023-04-06T11:05:48;14.10;60.30
35700;DHT22;21818;51.078;12.108;2023-04-06T11:08:33;14.10;60.30
35700;DHT22;21818;51.078;12.108;2023-04-06T11:11:12;14.20;60.30
35700;DHT22;21818;51.078;12.108;2023-04-06T11:13:45;14.20;60.40
35700;DHT22;21818;51.078;12.108;2023-04-06T11:16:13;14.20;60.40
35700;DHT22;21818;51.078;12.108;2023-04-06T11:18:53;14.20;60.40
35700;DHT22;21818;51.078;12.108;2023-04-06T11:21:29;14.20;60.40
35700;DHT22;21818;51.078;12.108;2023-04-06T11:24:06;14.20;60.40
35700;DHT22;21818;51.078;12.108;2023-04-06T11:26:36;14.30;60.60
35700;DHT22;21818;51.078;12.108;2023-04-06T11:29:02;14.30;60.50
35700;DHT22;21818;51.078;12.108;2023-04-06T11:31:28;14.30;60.60
35700;DHT22;21818;51.078;12.108;2023-04-06T11:33:57;14.30;60.50
35700;DHT22;21818;51.078;12.108;2023-04-06T11:36:23;14.30;60.00
35700;DHT22;21818;51.078;12.108;2023-04-06T11:38:48;14.30;59.90
35700;DHT22;21818;51.078;12.108;2023-04-06T11:41:14;14.30;59.90
35700;DHT22;21818;51.078;12.108;2023-04-06T11:43:47;14.40;60.00
35700;DHT22;21818;51.078;12.108;2023-04-06T11:46:17;14.40;60.10
35700;DHT22;21818;51.078;12.108;2023-04-06T11:48:45;14.40;60.10
35700;DHT22;21818;51.078;12.108;2023-04-06T11:51:11;14.40;60.20
35700;DHT22;21818;51.078;12.108;2023-04-06T11:53:46;14.50;60.20
35700;DHT22;21818;51.078;12.108;2023-04-06T11:56:23;14.50;59.80
35700;DHT22;21818;51.078;12.108;2023-04-06T11:58:48;14.60;59.40
35700;DHT22;21818;51.078;12.108;2023-04-06T12:01:14;14.70;59.90
35700;DHT22;21818;51.078;12.108;2023-04-06T12:03:39;14.70;59.30
35700;DHT22;21818;51.078;12.108;2023-04-06T12:06:05;14.80;59.20
35700;DHT22;21818;51.078;12.108;2023-04-06T12:08:31;14.90;59.20
35700;DHT22;21818;51.078;12.108;2023-04-06T12:10:56;15.00;59.20
35700;DHT22;21818;51.078;12.108;2023-04-06T12:13:22;15.10;59.00
35700;DHT22;21818;51.078;12.108;2023-04-06T12:15:47;15.30;58.80
35700;DHT22;21818;51.078;12.108;2023-04-06T12:18:13;15.60;58.20
35700;DHT22;21818;51.078;12.108;2023-04-06T12:20:39;16.10;57.20
35700;DHT22;21818;51.078;12.108;2023-04-06T12:23:04;16.60;56.20
35700;DHT22;21818;51.078;12.108;2023-04-06T12:25:30;17.00;55.30
35700;DHT22;21818;51.078;12.108;2023-04-06T12:27:56;17.30;54.40
35700;DHT22;21818;51.078;12.108;2023-04-06T12:30:21;17.50;53.70
35700;DHT22;21818;51.078;12.108;2023-04-06T12:32:47;17.60;53.30
35700;DHT22;21818;51.078;12.108;2023-04-06T12:35:12;17.70;53.10
35700;DHT22;21818;51.078;12.108;2023-04-06T12:37:41;17.80;53.10
35700;DHT22;21818;51.078;12.108;2023-04-06T12:40:07;17.90;53.10
35700;DHT22;21818;51.078;12.108;2023-04-06T12:42:36;18.00;53.20
35700;DHT22;21818;51.078;12.108;2023-04-06T12:45:01;18.00;53.10
35700;DHT22;21818;51.078;12.108;2023-04-06T12:47:27;18.00;53.00
35700;DHT22;21818;51.078;12.108;2023-04-06T12:49:53;18.10;53.20
35700;DHT22;21818;51.078;12.108;2023-04-06T12:52:20;18.10;53.40
35700;DHT22;21818;51.078;12.108;2023-04-06T12:54:45;18.10;53.50
35700;DHT22;21818;51.078;12.108;2023-04-06T12:57:12;18.20;53.60
35700;DHT22;21818;51.078;12.108;2023-04-06T12:59:37;18.20;53.70
35700;DHT22;21818;51.078;12.108;2023-04-06T13:02:04;18.30;53.90
35700;DHT22;21818;51.078;12.108;2023-04-06T13:04:30;18.30;53.90
35700;DHT22;21818;51.078;12.108;2023-04-06T13:06:55;18.40;54.10
35700;DHT22;21818;51.078;12.108;2023-04-06T13:09:21;18.40;54.20
35700;DHT22;21818;51.078;12.108;2023-04-06T13:11:47;18.50;54.10
35700;DHT22;21818;51.078;12.108;2023-04-06T13:14:12;18.60;54.00
35700;DHT22;21818;51.078;12.108;2023-04-06T13:16:38;18.70;54.10
35700;DHT22;21818;51.078;12.108;2023-04-06T13:19:04;18.80;53.90
35700;DHT22;21818;51.078;12.108;2023-04-06T13:21:29;18.90;53.80
35700;DHT22;21818;51.078;12.108;2023-04-06T13:23:55;19.10;53.70
35700;DHT22;21818;51.078;12.108;2023-04-06T13:26:21;19.20;53.50
35700;DHT22;21818;51.078;12.108;2023-04-06T13:28:46;19.30;53.40
35700;DHT22;21818;51.078;12.108;2023-04-06T13:31:12;19.40;53.20
35700;DHT22;21818;51.078;12.108;2023-04-06T13:33:38;19.40;53.10
35700;DHT22;21818;51.078;12.108;2023-04-06T13:36:06;19.50;52.80
35700;DHT22;21818;51.078;12.108;2023-04-06T13:38:32;19.60;52.80
35700;DHT22;21818;51.078;12.108;2023-04-06T13:40:59;19.70;52.70
35700;DHT22;21818;51.078;12.108;2023-04-06T13:43:24;19.80;52.30
35700;DHT22;21818;51.078;12.108;2023-04-06T13:45:53;19.90;52.20
35700;DHT22;21818;51.078;12.108;2023-04-06T13:48:20;20.00;52.00
35700;DHT22;21818;51.078;12.108;2023-04-06T13:50:46;20.10;51.80
35700;DHT22;21818;51.078;12.108;2023-04-06T13:53:12;20.10;51.70
35700;DHT22;21818;51.078;12.108;2023-04-06T13:55:37;20.10;51.60
35700;DHT22;21818;51.078;12.108;2023-04-06T13:58:03;20.20;52.10
35700;DHT22;21818;51.078;12.108;2023-04-06T14:00:28;20.30;51.40
35700;DHT22;21818;51.078;12.108;2023-04-06T14:02:54;20.30;51.20
35700;DHT22;21818;51.078;12.108;2023-04-06T14:05:20;20.30;51.10
35700;DHT22;21818;51.078;12.108;2023-04-06T14:07:46;20.40;51.00
35700;DHT22;21818;51.078;12.108;2023-04-06T14:10:12;20.50;50.90
35700;DHT22;21818;51.078;12.108;2023-04-06T14:12:42;20.50;50.70
35700;DHT22;21818;51.078;12.108;2023-04-06T14:15:09;20.60;50.50
35700;DHT22;21818;51.078;12.108;2023-04-06T14:17:34;20.70;50.40
35700;DHT22;21818;51.078;12.108;2023-04-06T14:20:00;20.80;50.30
35700;DHT22;21818;51.078;12.108;2023-04-06T14:22:26;20.90;50.10
35700;DHT22;21818;51.078;12.108;2023-04-06T14:24:51;21.00;49.90
35700;DHT22;21818;51.078;12.108;2023-04-06T14:27:17;21.00;49.70
35700;DHT22;21818;51.078;12.108;2023-04-06T14:29:42;21.10;49.60
35700;DHT22;21818;51.078;12.108;2023-04-06T14:32:08;21.10;49.40
35700;DHT22;21818;51.078;12.108;2023-04-06T14:34:37;21.10;49.30
35700;DHT22;21818;51.078;12.108;2023-04-06T14:37:02;21.20;49.20
35700;DHT22;21818;51.078;12.108;2023-04-06T14:39:28;21.20;49.30
35700;DHT22;21818;51.078;12.108;2023-04-06T14:41:53;21.20;49.10
35700;DHT22;21818;51.078;12.108;2023-04-06T14:44:19;21.20;49.10
35700;DHT22;21818;51.078;12.108;2023-04-06T14:46:44;21.20;49.00
35700;DHT22;21818;51.078;12.108;2023-04-06T14:49:10;21.30;49.00
35700;DHT22;21818;51.078;12.108;2023-04-06T14:51:36;21.30;48.90
35700;DHT22;21818;51.078;12.108;2023-04-06T14:54:02;21.30;48.90
35700;DHT22;21818;51.078;12.108;2023-04-06T14:56:28;21.30;48.80
35700;DHT22;21818;51.078;12.108;2023-04-06T14:58:57;21.30;48.80
35700;DHT22;21818;51.078;12.108;2023-04-06T15:01:23;21.30;48.80
35700;DHT22;21818;51.078;12.108;2023-04-06T15:03:49;21.30;48.80
35700;DHT22;21818;51.078;12.108;2023-04-06T15:06:15;21.20;48.80
35700;DHT22;21818;51.078;12.108;2023-04-06T15:08:44;21.20;48.80
35700;DHT22;21818;51.078;12.108;2023-04-06T15:11:11;21.20;48.80
35700;DHT22;21818;51.078;12.108;2023-04-06T15:13:37;21.10;48.90
35700;DHT22;21818;51.078;12.108;2023-04-06T15:16:04;21.10;48.90
35700;DHT22;21818;51.078;12.108;2023-04-06T15:18:30;21.00;49.00
35700;DHT22;21818;51.078;12.108;2023-04-06T15:20:55;20.90;49.10